Time;durP1;ratioP1;P1;durP2;ratioP2;P2;SDS_P1;SDS_P2;PMS_P1;PMS_P2;Temp;Humidity;BMP_temperature;BMP_pressure;BME280_temperature;BME280_humidity;BME280_pressure;Samples;Min_cycle;Max_cycle;Signal;HPM_P1;HPM_P2
2022/08/06 00:01:50;;;;;;;9.88;4.05;;;28.70;99.90;;;;;;5009822;28;20041;-50
2022/08/06 00:04:17;;;;;;;8.48;3.22;;;28.70;99.90;;;;;;5010949;28;20025;-49
2022/08/06 00:06:43;;;;;;;12.68;4.38;;;28.60;99.90;;;;;;5006218;28;20072;-50
2022/08/06 00:09:10;;;;;;;4.93;4.43;;;28.70;99.90;;;;;;5008988;28;20057;-50
2022/08/06 00:11:36;;;;;;;8.23;5.45;;;28.70;99.90;;;;;;5009894;28;20033;-49
2022/08/06 00:14:02;;;;;;;8.68;4.15;;;28.70;99.90;;;;;;5010962;28;20327;-51
2022/08/06 00:16:28;;;;;;;8.00;3.97;;;28.70;99.90;;;;;;5010839;28;20107;-51
2022/08/06 00:18:54;;;;;;;7.28;3.30;;;28.70;99.90;;;;;;5010160;28;20033;-52
2022/08/06 00:21:19;;;;;;;9.70;3.55;;;28.70;99.90;;;;;;4989427;28;20033;-51
2022/08/06 00:23:45;;;;;;;8.85;3.65;;;28.70;99.90;;;;;;4993389;28;20054;-52
2022/08/06 00:26:11;;;;;;;11.63;4.82;;;28.70;99.90;;;;;;4993959;28;20034;-52
2022/08/06 00:28:37;;;;;;;8.48;6.30;;;28.70;99.90;;;;;;4998107;28;20406;-50
2022/08/06 00:31:04;;;;;;;9.07;4.32;;;28.70;99.90;;;;;;4998228;28;20023;-49
2022/08/06 00:33:30;;;;;;;7.05;3.63;;;28.70;99.90;;;;;;5001046;28;20112;-55
2022/08/06 00:35:55;;;;;;;6.35;3.22;;;28.70;99.90;;;;;;4997203;28;20042;-48
2022/08/06 00:38:21;;;;;;;4.20;3.08;;;28.70;99.90;;;;;;4999384;28;20030;-47
2022/08/06 00:40:48;;;;;;;5.30;2.85;;;28.70;99.90;;;;;;5003381;28;20034;-48
2022/08/06 00:43:14;;;;;;;9.88;2.95;;;28.60;99.90;;;;;;5000859;28;20057;-48
2022/08/06 00:45:40;;;;;;;4.43;3.58;;;28.60;99.90;;;;;;5005940;28;20034;-48
2022/08/06 00:48:06;;;;;;;5.32;3.10;;;28.50;99.90;;;;;;5002601;28;20038;-48
2022/08/06 00:50:32;;;;;;;6.72;2.45;;;28.60;99.90;;;;;;5005457;28;20030;-48
2022/08/06 00:53:03;;;;;;;7.47;3.38;;;28.50;99.90;;;;;;4997040;28;20033;-49
2022/08/06 00:55:30;;;;;;;5.53;2.20;;;28.50;99.90;;;;;;5008305;28;20029;-49
2022/08/06 00:57:56;;;;;;;4.82;2.30;;;28.50;99.90;;;;;;5006884;28;20030;-49
2022/08/06 01:00:21;;;;;;;8.70;3.20;;;28.40;99.90;;;;;;5006620;28;20412;-49
2022/08/06 01:02:47;;;;;;;6.40;3.30;;;28.40;99.90;;;;;;4981677;28;20038;-50
2022/08/06 01:05:13;;;;;;;5.20;2.80;;;28.40;99.90;;;;;;5000520;28;20050;-49
2022/08/06 01:07:39;;;;;;;5.18;2.92;;;28.40;99.90;;;;;;4989645;28;20049;-49
2022/08/06 01:10:05;;;;;;;6.53;3.30;;;28.40;99.90;;;;;;5004829;28;20620;-50
2022/08/06 01:12:31;;;;;;;4.10;2.53;;;28.40;99.90;;;;;;5001247;28;20041;-49
2022/08/06 01:14:56;;;;;;;5.88;2.30;;;28.30;99.90;;;;;;5011953;28;20394;-49
2022/08/06 01:17:31;;;;;;;7.05;2.80;;;28.30;99.90;;;;;;5003942;28;20033;-49
2022/08/06 01:20:08;;;;;;;4.68;2.60;;;28.30;99.90;;;;;;5008510;28;20026;-50
2022/08/06 01:22:52;;;;;;;6.68;2.33;;;28.30;99.90;;;;;;5008541;28;20035;-50
2022/08/06 01:25:38;;;;;;;7.13;3.25;;;28.30;99.90;;;;;;5004661;28;20053;-50
2022/08/06 01:28:21;;;;;;;6.82;2.53;;;28.30;99.90;;;;;;5009706;28;20138;-50
2022/08/06 01:30:52;;;;;;;9.50;3.83;;;28.30;99.90;;;;;;5003953;28;20030;-49
2022/08/06 01:33:27;;;;;;;6.13;2.60;;;28.30;99.90;;;;;;4997922;28;20117;-50
2022/08/06 01:35:58;;;;;;;5.68;2.13;;;28.20;99.90;;;;;;5008933;28;20049;-52
2022/08/06 01:38:35;;;;;;;6.15;2.47;;;28.20;99.90;;;;;;5005627;28;20042;-50
2022/08/06 01:41:05;;;;;;;5.07;2.60;;;28.20;99.90;;;;;;5002557;28;20108;-50
2022/08/06 01:43:33;;;;;;;7.50;2.33;;;28.20;99.90;;;;;;5002397;28;20034;-49
2022/08/06 01:46:00;;;;;;;6.20;2.30;;;28.20;99.90;;;;;;5003021;28;20065;-50
2022/08/06 01:48:27;;;;;;;;;;;28.20;99.90;;;;;;5010203;28;20041;-49
2022/08/06 01:50:57;;;;;;;4.65;2.88;;;28.20;99.90;;;;;;5004325;28;19909;-49
2022/08/06 01:53:31;;;;;;;3.00;2.47;;;28.20;99.90;;;;;;5002902;28;20121;-50
2022/08/06 01:56:00;;;;;;;7.68;2.58;;;28.20;99.90;;;;;;4999467;28;20022;-50
2022/08/06 01:58:31;;;;;;;12.40;2.50;;;28.20;99.90;;;;;;5004533;28;20040;-50
2022/08/06 02:01:04;;;;;;;4.82;2.45;;;28.20;99.90;;;;;;5008170;28;20395;-50
2022/08/06 02:03:43;;;;;;;3.63;2.15;;;28.20;99.90;;;;;;4980953;28;20085;-50
2022/08/06 02:06:14;;;;;;;5.57;2.50;;;28.20;99.90;;;;;;5002102;28;20042;-49
2022/08/06 02:08:41;;;;;;;10.02;2.50;;;28.10;99.90;;;;;;4997570;28;20033;-50
2022/08/06 02:11:09;;;;;;;4.00;2.30;;;28.10;99.90;;;;;;5007890;28;20034;-49
2022/08/06 02:13:36;;;;;;;6.63;2.50;;;28.10;99.90;;;;;;4995454;28;20478;-49
2022/08/06 02:16:05;;;;;;;2.80;2.15;;;28.10;99.90;;;;;;5003668;28;20030;-51
2022/08/06 02:18:37;;;;;;;4.97;2.40;;;28.10;99.90;;;;;;4997130;28;20029;-49
2022/08/06 02:21:06;;;;;;;7.85;2.20;;;28.10;99.90;;;;;;4999167;28;20038;-50
2022/08/06 02:23:33;;;;;;;4.43;2.25;;;28.10;99.90;;;;;;4999437;28;20140;-49
2022/08/06 02:26:02;;;;;;;4.10;2.03;;;28.10;99.90;;;;;;5001185;28;20030;-49
2022/08/06 02:28:29;;;;;;;7.22;2.40;;;28.10;99.90;;;;;;5004055;28;20045;-49
2022/08/06 02:30:57;;;;;;;6.32;2.10;;;28.10;99.90;;;;;;5005639;28;20096;-50
2022/08/06 02:33:23;;;;;;;6.75;2.60;;;28.10;99.90;;;;;;4991558;28;20054;-50
2022/08/06 02:35:59;;;;;;;8.93;2.40;;;28.00;99.90;;;;;;5003238;28;20078;-50
2022/08/06 02:38:41;;;;;;;2.92;2.45;;;28.10;99.90;;;;;;4992764;28;20486;-49
2022/08/06 02:41:20;;;;;;;4.13;1.85;;;28.00;99.90;;;;;;4996185;28;20306;-49
2022/08/06 02:43:56;;;;;;;5.97;2.85;;;28.00;99.90;;;;;;4982439;28;20137;-49
2022/08/06 02:46:38;;;;;;;3.67;1.77;;;28.00;99.90;;;;;;5005713;28;20041;-50
2022/08/06 02:49:11;;;;;;;5.28;1.70;;;28.00;99.90;;;;;;5008610;28;20502;-50
2022/08/06 02:51:42;;;;;;;9.63;2.38;;;28.00;99.90;;;;;;5012065;28;20029;-49
2022/08/06 02:54:17;;;;;;;5.38;1.95;;;28.00;99.90;;;;;;5011722;28;20482;-50
2022/08/06 02:56:45;;;;;;;5.07;2.28;;;28.00;99.90;;;;;;5011745;28;20033;-50
2022/08/06 02:59:15;;;;;;;3.45;1.92;;;28.00;99.90;;;;;;5012537;28;20026;-50
2022/08/06 03:01:47;;;;;;;3.65;1.70;;;28.00;99.90;;;;;;5011666;28;20073;-50
2022/08/06 03:04:15;;;;;;;6.25;1.85;;;28.00;99.90;;;;;;5011874;28;20057;-51
2022/08/06 03:06:45;;;;;;;3.10;2.08;;;27.90;99.90;;;;;;5011849;28;20076;-50
2022/08/06 03:09:14;;;;;;;3.13;1.90;;;27.90;99.90;;;;;;5010972;28;20109;-50
2022/08/06 03:11:41;;;;;;;4.82;2.33;;;27.90;99.90;;;;;;5011480;28;20079;-50
2022/08/06 03:14:08;;;;;;;6.78;2.60;;;27.90;99.90;;;;;;5011335;28;20033;-48
2022/08/06 03:16:36;;;;;;;3.92;1.85;;;27.90;99.90;;;;;;5011423;28;20223;-49
2022/08/06 03:19:04;;;;;;;4.38;1.90;;;28.00;99.90;;;;;;5011808;28;20033;-50
2022/08/06 03:21:32;;;;;;;5.47;2.08;;;27.90;99.90;;;;;;5009163;28;20033;-50
2022/08/06 03:24:00;;;;;;;3.67;2.40;;;27.90;99.90;;;;;;5010974;28;20029;-49
2022/08/06 03:26:28;;;;;;;5.93;2.40;;;27.90;99.90;;;;;;5009387;28;20394;-50
2022/08/06 03:28:55;;;;;;;6.72;2.38;;;27.90;99.90;;;;;;5011202;28;20498;-52
2022/08/06 03:31:24;;;;;;;2.95;2.05;;;27.90;99.90;;;;;;5009837;28;20049;-51
2022/08/06 03:33:51;;;;;;;15.43;2.72;;;27.90;99.90;;;;;;5009806;28;20104;-51
2022/08/06 03:36:18;;;;;;;3.38;2.20;;;27.80;99.90;;;;;;5009780;28;20088;-51
2022/08/06 03:38:58;;;;;;;3.97;2.53;;;27.80;99.90;;;;;;5009903;28;20022;-51
2022/08/06 03:41:26;;;;;;;3.38;2.20;;;27.80;99.90;;;;;;5010092;28;20049;-50
2022/08/06 03:43:52;;;;;;;3.53;1.77;;;27.80;99.90;;;;;;5010311;28;20490;-50
2022/08/06 03:46:26;;;;;;;3.50;1.98;;;27.80;99.90;;;;;;5010085;28;20050;-51
2022/08/06 03:48:53;;;;;;;3.60;2.17;;;27.80;99.90;;;;;;5010771;28;20122;-50
2022/08/06 03:51:23;;;;;;;5.40;1.90;;;27.80;99.90;;;;;;5011424;28;20030;-49
2022/08/06 03:53:51;;;;;;;5.65;2.40;;;27.80;99.90;;;;;;5011482;28;20033;-49
2022/08/06 03:56:22;;;;;;;6.63;2.40;;;27.80;99.90;;;;;;5011285;28;20022;-50
2022/08/06 03:58:52;;;;;;;5.70;2.25;;;27.80;99.90;;;;;;5011661;28;20030;-50
2022/08/06 04:01:22;;;;;;;4.70;2.72;;;27.80;99.90;;;;;;5022897;22;20054;-48
2022/08/06 04:03:50;;;;;;;7.20;2.35;;;27.80;99.90;;;;;;4998795;28;20431;-48
2022/08/06 04:06:18;;;;;;;2.80;1.98;;;27.80;99.90;;;;;;4991814;28;20449;-48
2022/08/06 04:08:45;;;;;;;5.65;2.45;;;27.80;99.90;;;;;;4991738;28;20455;-48
2022/08/06 04:11:12;;;;;;;5.25;2.22;;;27.80;99.90;;;;;;4991866;28;20057;-48
2022/08/06 04:13:38;;;;;;;6.03;1.83;;;27.80;99.90;;;;;;4991686;28;20018;-48
2022/08/06 04:16:04;;;;;;;5.60;1.90;;;27.80;99.90;;;;;;4991808;28;20042;-48
2022/08/06 04:18:38;;;;;;;5.05;2.35;;;27.80;99.90;;;;;;5001288;28;20033;-47
2022/08/06 04:21:10;;;;;;;3.17;1.85;;;27.80;99.90;;;;;;5010845;28;20029;-48
2022/08/06 04:23:38;;;;;;;4.43;1.67;;;27.80;99.90;;;;;;5009360;28;20030;-48
2022/08/06 04:26:07;;;;;;;3.28;1.95;;;27.80;99.90;;;;;;4997293;28;20474;-48
2022/08/06 04:28:36;;;;;;;6.05;2.03;;;27.80;99.90;;;;;;5010963;28;20482;-48
2022/08/06 04:31:02;;;;;;;3.35;2.13;;;27.80;99.90;;;;;;5010558;28;20034;-48
2022/08/06 04:33:31;;;;;;;3.53;2.30;;;27.80;99.90;;;;;;5011151;28;20490;-48
2022/08/06 04:36:04;;;;;;;7.82;2.30;;;27.80;99.90;;;;;;5011076;28;20173;-48
2022/08/06 04:38:31;;;;;;;5.85;2.30;;;27.80;99.90;;;;;;5011002;28;20553;-48
2022/08/06 04:40:58;;;;;;;5.20;2.47;;;27.80;99.90;;;;;;5011034;28;20560;-47
2022/08/06 04:43:25;;;;;;;4.83;2.43;;;27.80;99.90;;;;;;4996579;28;20505;-46
2022/08/06 04:45:51;;;;;;;10.70;2.08;;;27.80;99.90;;;;;;4996752;28;20706;-46
2022/08/06 04:48:18;;;;;;;12.10;2.65;;;27.80;99.90;;;;;;5010868;28;20120;-47
2022/08/06 04:50:44;;;;;;;8.27;2.77;;;27.80;99.90;;;;;;5010862;28;20054;-47
2022/08/06 04:53:15;;;;;;;7.38;2.20;;;27.80;99.90;;;;;;4989511;28;20057;-46
2022/08/06 04:55:42;;;;;;;4.13;2.28;;;27.80;99.90;;;;;;4991330;28;20117;-47
2022/08/06 04:58:11;;;;;;;3.10;2.60;;;27.80;99.90;;;;;;4998840;28;20030;-47
2022/08/06 05:00:39;;;;;;;4.47;2.80;;;27.80;99.90;;;;;;5007356;28;20078;-47
2022/08/06 05:03:05;;;;;;;8.13;2.80;;;27.80;99.90;;;;;;4991469;28;20350;-46
2022/08/06 05:05:41;;;;;;;5.10;2.35;;;27.80;99.90;;;;;;4992621;28;20026;-46
2022/08/06 05:08:09;;;;;;;6.53;2.35;;;27.80;99.90;;;;;;4991273;28;20030;-46
2022/08/06 05:10:44;;;;;;;4.88;2.25;;;27.80;99.90;;;;;;4991299;28;20109;-46
2022/08/06 05:13:13;;;;;;;4.10;2.13;;;27.80;99.90;;;;;;4992636;28;20034;-47
2022/08/06 05:15:43;;;;;;;5.18;2.08;;;27.80;99.90;;;;;;4994938;28;20474;-47
2022/08/06 05:18:16;;;;;;;6.80;2.05;;;27.80;99.90;;;;;;4994796;28;20026;-46
2022/08/06 05:20:48;;;;;;;4.93;2.33;;;27.80;99.90;;;;;;4994894;28;20030;-47
2022/08/06 05:23:21;;;;;;;5.05;2.28;;;27.70;99.90;;;;;;4998472;28;20033;-48
2022/08/06 05:25:48;;;;;;;4.65;2.63;;;27.70;99.90;;;;;;5012213;28;20028;-47
2022/08/06 05:28:14;;;;;;;6.75;2.30;;;27.70;99.90;;;;;;4998477;28;20026;-47
2022/08/06 05:30:48;;;;;;;7.68;2.15;;;27.70;99.90;;;;;;4998983;28;20375;-47
2022/08/06 05:33:31;;;;;;;7.00;2.78;;;27.70;99.90;;;;;;4994861;28;20105;-47
2022/08/06 05:35:58;;;;;;;4.78;2.92;;;27.70;99.90;;;;;;4977180;28;20022;-47
2022/08/06 05:38:25;;;;;;;15.30;2.45;;;27.70;99.90;;;;;;4994583;28;20026;-47
2022/08/06 05:40:52;;;;;;;10.65;2.80;;;27.70;99.90;;;;;;4994399;28;20035;-47
2022/08/06 05:43:18;;;;;;;12.00;2.90;;;27.70;99.90;;;;;;5005668;28;20025;-47
2022/08/06 05:45:46;;;;;;;8.40;2.83;;;27.70;99.90;;;;;;4985742;28;20509;-47
2022/08/06 05:48:15;;;;;;;8.05;3.25;;;27.70;99.90;;;;;;4994265;28;20038;-47
2022/08/06 05:50:48;;;;;;;8.90;2.90;;;27.70;99.90;;;;;;4994342;28;20027;-47
2022/08/06 05:53:21;;;;;;;8.90;2.85;;;27.70;99.90;;;;;;4995273;28;20072;-47
2022/08/06 05:55:59;;;;;;;7.15;2.75;;;27.70;99.90;;;;;;4994055;28;20022;-47
2022/08/06 05:58:37;;;;;;;5.97;2.78;;;27.70;99.90;;;;;;4994294;28;20033;-47
2022/08/06 06:01:07;;;;;;;5.15;3.00;;;27.60;99.90;;;;;;5011393;28;20041;-47
2022/08/06 06:03:34;;;;;;;6.13;3.00;;;27.60;99.90;;;;;;5000018;28;20095;-47
2022/08/06 06:06:01;;;;;;;11.48;3.20;;;27.60;99.90;;;;;;4994168;28;20040;-47
2022/08/06 06:08:27;;;;;;;8.48;3.47;;;27.70;99.90;;;;;;4993881;28;20473;-47
2022/08/06 06:10:54;;;;;;;4.78;2.92;;;27.60;99.90;;;;;;4993858;28;20221;-47
2022/08/06 06:13:22;;;;;;;5.65;3.47;;;27.60;99.90;;;;;;4994168;28;20489;-47
2022/08/06 06:16:11;;;;;;;6.15;3.28;;;27.70;99.90;;;;;;5001878;28;20033;-47
2022/08/06 06:18:54;;;;;;;14.52;4.45;;;27.60;99.90;;;;;;4998222;28;20125;-48
2022/08/06 06:21:36;;;;;;;8.57;3.13;;;27.60;99.90;;;;;;4993551;28;20117;-49
2022/08/06 06:24:26;;;;;;;8.35;3.28;;;27.60;99.90;;;;;;4994397;28;20034;-48
2022/08/06 06:27:01;;;;;;;4.40;2.90;;;27.60;99.90;;;;;;4993530;28;20071;-47
2022/08/06 06:29:34;;;;;;;6.85;3.33;;;27.60;99.90;;;;;;4998829;28;20030;-48
2022/08/06 06:32:13;;;;;;;9.80;3.55;;;27.60;99.90;;;;;;5012523;28;20037;-48
2022/08/06 06:34:59;;;;;;;10.52;3.72;;;27.60;99.90;;;;;;5013323;28;20489;-46
2022/08/06 06:37:50;;;;;;;10.13;4.25;;;27.60;99.90;;;;;;5012484;28;20038;-46
2022/08/06 06:40:24;;;;;;;7.40;3.10;;;27.60;99.90;;;;;;5012880;28;20083;-47
2022/08/06 06:43:09;;;;;;;4.13;3.20;;;27.60;99.90;;;;;;5004888;28;20034;-47
2022/08/06 06:45:54;;;;;;;5.70;3.88;;;27.60;99.90;;;;;;5008251;28;20034;-47
2022/08/06 06:48:35;;;;;;;9.18;3.67;;;27.60;99.90;;;;;;4975928;28;20022;-47
2022/08/06 06:51:22;;;;;;;8.57;3.28;;;27.60;99.90;;;;;;4976763;28;20030;-47
2022/08/06 06:53:50;;;;;;;8.37;3.93;;;27.60;99.90;;;;;;4994265;28;20088;-47
2022/08/06 06:56:21;;;;;;;7.22;3.33;;;27.60;99.90;;;;;;5010735;28;20030;-47
2022/08/06 06:58:52;;;;;;;9.32;3.30;;;27.60;99.90;;;;;;4994901;28;20061;-47
2022/08/06 07:01:19;;;;;;;7.22;3.15;;;27.60;99.90;;;;;;5008692;28;20038;-47
2022/08/06 07:03:47;;;;;;;7.82;3.47;;;27.60;99.90;;;;;;5006769;28;20033;-47
2022/08/06 07:06:15;;;;;;;9.18;3.10;;;27.60;99.90;;;;;;5012292;28;20088;-47
2022/08/06 07:08:46;;;;;;;5.82;3.17;;;27.60;99.90;;;;;;5012734;28;20029;-47
2022/08/06 07:11:20;;;;;;;8.07;3.42;;;27.60;99.90;;;;;;5011910;28;20359;-46
2022/08/06 07:13:46;;;;;;;8.30;4.25;;;27.60;99.90;;;;;;5011933;28;20026;-47
2022/08/06 07:16:21;;;;;;;6.53;3.17;;;27.60;99.90;;;;;;5002868;28;20030;-47
2022/08/06 07:18:48;;;;;;;6.03;2.83;;;27.60;99.90;;;;;;5001971;28;20058;-47
2022/08/06 07:21:16;;;;;;;7.03;3.17;;;27.60;99.90;;;;;;5011768;28;20042;-48
2022/08/06 07:23:48;;;;;;;7.82;2.90;;;27.60;99.90;;;;;;5003589;28;20023;-47
2022/08/06 07:26:17;;;;;;;7.15;3.80;;;27.60;99.90;;;;;;4992541;28;20390;-47
2022/08/06 07:28:44;;;;;;;7.07;3.60;;;27.70;99.90;;;;;;5003668;28;20029;-47
2022/08/06 07:31:11;;;;;;;5.80;3.00;;;27.60;99.90;;;;;;5011949;28;20037;-47
2022/08/06 07:33:42;;;;;;;6.32;2.90;;;27.70;99.90;;;;;;4997843;28;20034;-47
2022/08/06 07:36:09;;;;;;;5.30;3.10;;;27.70;99.90;;;;;;4991787;28;20127;-47
2022/08/06 07:38:40;;;;;;;8.33;2.97;;;27.70;99.90;;;;;;4992216;28;20450;-47
2022/08/06 07:41:07;;;;;;;4.85;2.60;;;27.70;99.90;;;;;;4997686;28;20069;-48
2022/08/06 07:43:53;;;;;;;4.35;2.28;;;27.70;99.90;;;;;;5011562;28;21000;-47
2022/08/06 07:46:31;;;;;;;4.18;2.80;;;27.80;99.90;;;;;;5003078;28;20149;-48
2022/08/06 07:49:01;;;;;;;;;;;27.80;99.90;;;;;;4992443;28;20034;-47
2022/08/06 07:51:34;;;;;;;7.40;2.72;;;27.80;99.90;;;;;;4991868;28;20300;-47
2022/08/06 07:54:01;;;;;;;8.25;3.03;;;27.90;99.90;;;;;;4983581;28;20026;-47
2022/08/06 07:56:28;;;;;;;5.95;2.83;;;27.90;99.90;;;;;;4984449;28;20616;-47
2022/08/06 07:58:55;;;;;;;7.30;3.47;;;28.00;99.90;;;;;;4991916;28;20058;-47
2022/08/06 08:01:23;;;;;;;7.40;3.20;;;28.00;99.90;;;;;;4991764;28;20073;-47
2022/08/06 08:06:35;;;;;;;5.65;2.72;;;28.10;99.90;;;;;;5002512;28;20037;-47
2022/08/06 08:09:04;;;;;;;7.68;3.00;;;28.10;99.90;;;;;;5011084;28;20030;-47
2022/08/06 08:11:32;;;;;;;8.30;3.15;;;28.10;99.90;;;;;;5007273;28;20022;-47
2022/08/06 08:13:58;;;;;;;5.82;3.28;;;28.20;99.90;;;;;;4991774;28;20423;-47
2022/08/06 08:16:26;;;;;;;6.75;3.03;;;28.20;99.90;;;;;;5003568;28;20042;-47
2022/08/06 08:18:52;;;;;;;5.55;3.45;;;28.20;99.90;;;;;;4976995;28;20091;-47
2022/08/06 08:21:19;;;;;;;6.90;3.50;;;28.20;99.90;;;;;;4991459;28;20046;-46
2022/08/06 08:23:46;;;;;;;4.90;2.93;;;28.30;99.90;;;;;;4996222;28;20037;-47
2022/08/06 08:26:11;;;;;;;8.20;3.47;;;28.30;99.90;;;;;;4995040;28;20264;-47
2022/08/06 08:28:37;;;;;;;4.90;3.38;;;28.30;99.90;;;;;;4982463;28;20032;-47
2022/08/06 08:31:05;;;;;;;11.25;3.67;;;28.30;99.90;;;;;;4991491;28;20424;-47
2022/08/06 08:33:33;;;;;;;4.90;3.63;;;28.40;99.90;;;;;;4991568;28;20422;-47
2022/08/06 08:36:00;;;;;;;7.78;4.00;;;28.40;99.90;;;;;;4991619;28;20471;-47
2022/08/06 08:38:34;;;;;;;8.57;3.83;;;28.40;99.90;;;;;;4991447;28;20073;-46
2022/08/06 08:41:09;;;;;;;7.80;3.78;;;28.50;99.90;;;;;;4991403;28;20030;-46
2022/08/06 08:43:41;;;;;;;8.52;3.45;;;28.50;99.90;;;;;;4973944;28;20041;-47
2022/08/06 08:46:09;;;;;;;7.00;3.70;;;28.50;99.90;;;;;;5004706;28;20037;-47
2022/08/06 08:48:36;;;;;;;4.93;3.60;;;28.50;99.90;;;;;;5012938;28;20092;-47
2022/08/06 08:51:02;;;;;;;5.32;3.60;;;28.60;99.90;;;;;;4996902;28;20034;-47
2022/08/06 08:53:43;;;;;;;10.27;3.83;;;28.60;99.90;;;;;;5010235;28;20026;-46
2022/08/06 08:56:12;;;;;;;6.95;3.30;;;28.60;99.90;;;;;;4996283;28;20073;-47
2022/08/06 08:58:42;;;;;;;8.55;3.58;;;28.60;99.90;;;;;;4995120;28;20022;-47
2022/08/06 09:01:08;;;;;;;7.85;2.85;;;28.70;99.90;;;;;;4995485;28;20104;-46
2022/08/06 09:03:36;;;;;;;6.38;4.32;;;28.60;99.90;;;;;;5002719;28;20036;-48
2022/08/06 09:06:03;;;;;;;6.95;3.85;;;28.70;99.90;;;;;;5009826;28;20041;-47
2022/08/06 09:08:31;;;;;;;6.22;3.08;;;28.70;99.90;;;;;;4992144;28;20045;-47
2022/08/06 09:10:58;;;;;;;7.15;4.00;;;28.70;99.90;;;;;;5001217;28;20030;-47
2022/08/06 09:13:28;;;;;;;6.95;4.00;;;28.70;99.90;;;;;;5012916;28;20042;-48
2022/08/06 09:15:55;;;;;;;8.68;3.63;;;28.70;99.90;;;;;;5012043;28;20382;-48
2022/08/06 09:18:22;;;;;;;6.68;3.78;;;28.80;99.90;;;;;;5012008;28;20386;-48
2022/08/06 09:20:48;;;;;;;8.63;3.92;;;28.80;99.90;;;;;;5008369;28;20039;-48
2022/08/06 09:23:16;;;;;;;10.80;3.90;;;28.90;99.90;;;;;;5007831;28;20036;-48
2022/08/06 09:25:52;;;;;;;10.63;4.13;;;28.90;99.90;;;;;;5009373;28;20079;-48
2022/08/06 09:28:40;;;;;;;6.90;3.60;;;28.90;99.90;;;;;;5011241;28;20036;-49
2022/08/06 09:31:17;;;;;;;6.97;3.60;;;28.90;99.90;;;;;;5010025;28;20397;-48
2022/08/06 09:34:04;;;;;;;7.80;4.72;;;28.90;99.90;;;;;;5011886;28;20030;-48
2022/08/06 09:36:51;;;;;;;;;;;28.90;99.90;;;;;;5005439;28;20022;-48
2022/08/06 09:39:29;;;;;;;6.50;3.75;;;28.90;99.90;;;;;;5005100;28;20298;-48
2022/08/06 09:41:54;;;;;;;5.75;3.97;;;29.00;99.90;;;;;;5010353;28;20042;-49
2022/08/06 09:44:20;;;;;;;6.60;3.83;;;29.00;99.90;;;;;;5008037;28;20025;-47
2022/08/06 09:46:49;;;;;;;6.88;3.95;;;29.10;99.90;;;;;;4998688;28;20022;-49
2022/08/06 09:49:17;;;;;;;5.90;4.65;;;29.00;99.90;;;;;;4994616;28;20026;-50
2022/08/06 09:51:43;;;;;;;;;;;29.00;99.90;;;;;;4994611;28;20038;-50
2022/08/06 09:54:15;;;;;;;5.07;3.67;;;29.10;99.90;;;;;;4994342;28;19906;-50
2022/08/06 09:56:44;;;;;;;5.78;3.50;;;29.10;99.90;;;;;;4994412;28;20025;-50
2022/08/06 09:59:12;;;;;;;8.90;4.38;;;29.10;99.90;;;;;;4993127;28;20034;-50
2022/08/06 10:01:42;;;;;;;;;;;29.10;99.90;;;;;;4994177;28;20069;-50
2022/08/06 10:04:13;;;;;;;8.73;4.82;;;29.10;99.90;;;;;;4993980;28;20259;-50
2022/08/06 10:06:58;;;;;;;11.45;5.15;;;29.10;99.90;;;;;;4976635;28;20026;-51
2022/08/06 10:09:25;;;;;;;7.00;3.97;;;29.20;99.90;;;;;;4994088;28;20026;-51
2022/08/06 10:11:51;;;;;;;6.22;3.70;;;29.20;99.90;;;;;;5003270;28;20026;-50
2022/08/06 10:14:22;;;;;;;9.57;3.95;;;29.30;99.90;;;;;;4996248;28;20030;-50
2022/08/06 10:17:07;;;;;;;7.07;3.63;;;29.30;99.90;;;;;;4994023;28;20093;-50
2022/08/06 10:19:33;;;;;;;5.97;3.70;;;29.30;99.90;;;;;;4993821;28;20033;-50
2022/08/06 10:22:06;;;;;;;6.70;3.72;;;29.40;99.90;;;;;;4993816;28;20038;-50
2022/08/06 10:24:45;;;;;;;5.55;3.80;;;29.40;99.90;;;;;;5003402;28;20018;-51
2022/08/06 10:27:20;;;;;;;9.48;3.88;;;29.40;99.90;;;;;;5012171;28;20029;-50
2022/08/06 10:29:55;;;;;;;6.28;3.35;;;29.40;99.90;;;;;;5010476;28;20022;-49
2022/08/06 10:32:27;;;;;;;6.68;3.45;;;29.50;99.90;;;;;;4990846;28;20391;-50
2022/08/06 10:34:54;;;;;;;8.43;3.95;;;29.50;99.90;;;;;;4991880;28;20022;-50
2022/08/06 10:37:20;;;;;;;;;;;29.50;99.90;;;;;;4974988;28;20037;-50
2022/08/06 10:39:49;;;;;;;13.85;9.65;;;29.50;99.90;;;;;;4993458;28;19913;-50
2022/08/06 10:42:15;;;;;;;25.38;22.25;;;29.50;99.90;;;;;;4974797;28;20034;-51
2022/08/06 10:44:44;;;;;;;9.60;4.50;;;29.50;99.90;;;;;;4993195;28;20495;-51
2022/08/06 10:47:11;;;;;;;13.88;8.90;;;29.50;99.90;;;;;;4993400;28;20494;-51
2022/08/06 10:49:38;;;;;;;11.85;4.10;;;29.50;99.90;;;;;;4993438;28;20486;-50
2022/08/06 10:52:04;;;;;;;6.40;3.17;;;29.50;99.90;;;;;;4993347;28;20038;-51
2022/08/06 10:54:31;;;;;;;8.10;4.03;;;29.50;99.90;;;;;;4993352;28;20029;-50
2022/08/06 10:56:58;;;;;;;8.60;3.17;;;29.50;99.90;;;;;;4993258;28;20022;-51
2022/08/06 10:59:23;;;;;;;5.45;3.35;;;29.50;99.90;;;;;;4975866;28;20812;-49
2022/08/06 11:02:05;;;;;;;9.60;4.03;;;29.50;99.90;;;;;;4992811;28;20139;-50
2022/08/06 11:04:55;;;;;;;6.85;3.00;;;29.50;99.90;;;;;;4992679;28;20026;-50
2022/08/06 11:07:21;;;;;;;7.00;3.42;;;29.60;99.90;;;;;;4993131;28;20101;-50
2022/08/06 11:10:08;;;;;;;30.23;16.90;;;29.60;99.90;;;;;;4993094;28;20558;-50
2022/08/06 11:12:46;;;;;;;8.88;6.88;;;29.70;99.90;;;;;;4992945;28;20034;-50
2022/08/06 11:15:12;;;;;;;5.07;3.25;;;29.70;99.90;;;;;;4992720;28;20053;-50
2022/08/06 11:17:50;;;;;;;9.48;6.00;;;29.70;99.90;;;;;;4992727;28;20069;-49
2022/08/06 11:20:37;;;;;;;11.63;4.32;;;29.70;99.90;;;;;;4992633;28;20033;-50
2022/08/06 11:23:24;;;;;;;4.97;3.08;;;29.80;99.90;;;;;;4992622;28;20035;-51
2022/08/06 11:26:01;;;;;;;6.88;3.80;;;29.80;99.90;;;;;;4992725;28;20022;-50
2022/08/06 11:28:27;;;;;;;;;;;29.80;99.90;;;;;;4993135;28;20041;-50
2022/08/06 11:30:55;;;;;;;10.52;4.18;;;29.90;99.90;;;;;;4992568;28;19906;-50
2022/08/06 11:33:41;;;;;;;8.00;3.60;;;29.90;99.90;;;;;;4975230;28;20038;-50
2022/08/06 11:36:09;;;;;;;11.35;3.47;;;29.90;99.90;;;;;;4992518;28;20018;-51
2022/08/06 11:38:47;;;;;;;6.70;2.90;;;29.90;99.90;;;;;;4991075;28;20042;-51
2022/08/06 11:41:22;;;;;;;6.72;3.20;;;29.90;99.90;;;;;;4974716;28;20142;-50
2022/08/06 11:43:53;;;;;;;6.03;3.35;;;30.00;99.90;;;;;;4992112;28;20034;-50
2022/08/06 11:46:29;;;;;;;8.90;3.83;;;30.00;99.90;;;;;;4992024;28;20061;-50
2022/08/06 11:49:04;;;;;;;9.63;4.22;;;30.00;99.90;;;;;;4992252;28;20014;-50
2022/08/06 11:51:44;;;;;;;4.55;3.03;;;30.10;99.90;;;;;;4991939;28;20022;-50
2022/08/06 11:54:28;;;;;;;8.70;3.60;;;30.10;99.90;;;;;;4991936;28;20033;-50
2022/08/06 11:57:09;;;;;;;10.32;4.68;;;30.10;99.90;;;;;;4992048;28;20042;-50
2022/08/06 11:59:37;;;;;;;7.97;5.03;;;30.10;99.90;;;;;;4991696;28;20483;-50
2022/08/06 12:02:07;;;;;;;9.88;4.20;;;30.10;99.90;;;;;;4991963;28;20391;-50
2022/08/06 12:04:39;;;;;;;7.82;3.50;;;30.20;99.90;;;;;;4991950;28;20045;-50
2022/08/06 12:07:23;;;;;;;5.10;3.80;;;30.10;99.90;;;;;;4991876;28;20022;-50
2022/08/06 12:10:04;;;;;;;4.38;2.63;;;30.10;99.90;;;;;;4974211;28;20716;-51
2022/08/06 12:12:39;;;;;;;6.70;3.63;;;30.10;99.90;;;;;;4991940;28;20393;-51
2022/08/06 12:15:16;;;;;;;3.50;2.65;;;30.20;99.90;;;;;;4991667;28;20035;-50
2022/08/06 12:17:56;;;;;;;7.93;3.72;;;30.20;99.90;;;;;;4991705;28;20019;-49
2022/08/06 12:20:41;;;;;;;10.35;4.45;;;30.20;99.90;;;;;;4991590;28;20030;-50
2022/08/06 12:23:10;;;;;;;8.48;5.72;;;30.20;99.90;;;;;;4991178;28;20035;-50
2022/08/06 12:25:37;;;;;;;5.25;2.80;;;30.30;99.90;;;;;;4991703;28;20018;-50
2022/08/06 12:28:04;;;;;;;5.88;3.67;;;30.30;99.90;;;;;;4991603;28;20030;-51
2022/08/06 12:30:56;;;;;;;7.80;4.10;;;30.30;99.90;;;;;;4991722;28;20027;-50
2022/08/06 12:33:22;;;;;;;9.75;4.88;;;30.30;99.90;;;;;;4971529;28;20037;-52
2022/08/06 12:35:52;;;;;;;7.15;3.38;;;30.30;99.90;;;;;;4991488;28;20030;-52
2022/08/06 12:38:19;;;;;;;6.00;3.22;;;30.40;99.90;;;;;;4991323;28;20022;-50
2022/08/06 12:41:04;;;;;;;22.35;15.23;;;30.40;99.90;;;;;;4991434;28;20030;-50
2022/08/06 12:43:31;;;;;;;13.38;7.90;;;30.40;99.90;;;;;;4991664;28;20483;-51
2022/08/06 12:46:07;;;;;;;15.23;9.43;;;30.40;99.90;;;;;;4991505;28;20061;-51
2022/08/06 12:48:35;;;;;;;22.73;18.85;;;30.40;99.90;;;;;;4991275;28;20049;-53
2022/08/06 12:51:10;;;;;;;10.02;5.07;;;30.40;99.90;;;;;;4991610;28;20501;-49
2022/08/06 12:53:56;;;;;;;9.02;5.40;;;30.40;99.90;;;;;;4991341;28;20026;-49
2022/08/06 12:56:23;;;;;;;8.95;3.63;;;30.40;99.90;;;;;;4991277;28;20022;-50
2022/08/06 12:58:51;;;;;;;9.38;5.18;;;30.40;99.90;;;;;;4973730;28;20098;-50
2022/08/06 13:01:19;;;;;;;10.30;4.15;;;30.40;99.90;;;;;;4991171;28;20039;-50
2022/08/06 13:03:47;;;;;;;8.30;3.65;;;30.40;99.90;;;;;;4958125;28;20030;-51
2022/08/06 13:06:14;;;;;;;;;;;30.50;99.90;;;;;;4991752;28;20019;-51
2022/08/06 13:08:41;;;;;;;7.18;4.22;;;30.50;99.90;;;;;;4991216;28;19937;-51
2022/08/06 13:11:07;;;;;;;7.70;3.55;;;30.60;99.90;;;;;;4991267;28;20021;-51